sensor_id;sensor_type;location;lat;lon;timestamp;P1;durP1;ratioP1;P2;durP2;ratioP2
7475;SDS011;3779;49.216;8.650;2023-04-06T00:02:10;3.17;;;2.87;;
7475;SDS011;3779;49.216;8.650;2023-04-06T00:04:56;2.93;;;2.60;;
7475;SDS011;3779;49.216;8.650;2023-04-06T00:07:42;2.40;;;2.20;;
7475;SDS011;3779;49.216;8.650;2023-04-06T00:10:28;2.93;;;2.37;;
7475;SDS011;3779;49.216;8.650;2023-04-06T00:13:14;3.50;;;3.20;;
7475;SDS011;3779;49.216;8.650;2023-04-06T00:16:00;3.17;;;2.87;;
7475;SDS011;3779;49.216;8.650;2023-04-06T00:18:46;2.90;;;2.70;;
7475;SDS011;3779;49.216;8.650;2023-04-06T00:21:32;3.07;;;2.87;;
7475;SDS011;3779;49.216;8.650;2023-04-06T00:24:18;3.90;;;3.50;;
7475;SDS011;3779;49.216;8.650;2023-04-06T00:27:04;4.37;;;4.00;;
7475;SDS011;3779;49.216;8.650;2023-04-06T00:29:49;2.63;;;2.43;;
7475;SDS011;3779;49.216;8.650;2023-04-06T00:32:35;3.43;;;2.73;;
7475;SDS011;3779;49.216;8.650;2023-04-06T00:35:21;2.77;;;2.57;;
7475;SDS011;3779;49.216;8.650;2023-04-06T00:38:07;3.73;;;3.33;;
7475;SDS011;3779;49.216;8.650;2023-04-06T00:40:53;2.80;;;2.60;;
7475;SDS011;3779;49.216;8.650;2023-04-06T00:43:39;4.37;;;3.97;;
7475;SDS011;3779;49.216;8.650;2023-04-06T00:46:25;4.47;;;4.07;;
7475;SDS011;3779;49.216;8.650;2023-04-06T00:49:11;3.97;;;3.30;;
7475;SDS011;3779;49.216;8.650;2023-04-06T00:51:57;4.07;;;3.67;;
7475;SDS011;3779;49.216;8.650;2023-04-06T00:54:43;3.60;;;2.50;;
7475;SDS011;3779;49.216;8.650;2023-04-06T00:57:30;4.37;;;3.97;;
7475;SDS011;3779;49.216;8.650;2023-04-06T01:00:17;4.63;;;3.57;;
7475;SDS011;3779;49.216;8.650;2023-04-06T01:03:05;2.90;;;2.53;;
7475;SDS011;3779;49.216;8.650;2023-04-06T01:05:57;3.70;;;3.40;;
7475;SDS011;3779;49.216;8.650;2023-04-06T01:08:49;2.50;;;2.30;;
7475;SDS011;3779;49.216;8.650;2023-04-06T01:11:38;3.37;;;3.07;;
7475;SDS011;3779;49.216;8.650;2023-04-06T01:14:29;3.40;;;2.93;;
7475;SDS011;3779;49.216;8.650;2023-04-06T01:17:18;3.50;;;3.00;;
7475;SDS011;3779;49.216;8.650;2023-04-06T01:20:05;2.80;;;2.50;;
7475;SDS011;3779;49.216;8.650;2023-04-06T01:22:51;4.70;;;4.30;;
7475;SDS011;3779;49.216;8.650;2023-04-06T01:25:38;4.80;;;4.30;;
7475;SDS011;3779;49.216;8.650;2023-04-06T01:28:27;3.70;;;3.33;;
7475;SDS011;3779;49.216;8.650;2023-04-06T01:31:22;3.87;;;3.53;;
7475;SDS011;3779;49.216;8.650;2023-04-06T01:34:10;2.63;;;2.43;;
7475;SDS011;3779;49.216;8.650;2023-04-06T01:36:56;3.97;;;3.00;;
7475;SDS011;3779;49.216;8.650;2023-04-06T01:39:46;4.83;;;3.50;;
7475;SDS011;3779;49.216;8.650;2023-04-06T01:42:41;5.90;;;3.67;;
7475;SDS011;3779;49.216;8.650;2023-04-06T01:45:29;3.00;;;2.70;;
7475;SDS011;3779;49.216;8.650;2023-04-06T01:48:20;2.77;;;2.57;;
7475;SDS011;3779;49.216;8.650;2023-04-06T01:51:07;3.80;;;3.50;;
7475;SDS011;3779;49.216;8.650;2023-04-06T01:53:59;2.77;;;2.57;;
7475;SDS011;3779;49.216;8.650;2023-04-06T01:57:04;2.57;;;2.37;;
7475;SDS011;3779;49.216;8.650;2023-04-06T02:00:01;4.57;;;3.17;;
7475;SDS011;3779;49.216;8.650;2023-04-06T02:02:58;4.20;;;3.80;;
7475;SDS011;3779;49.216;8.650;2023-04-06T02:05:48;2.70;;;2.50;;
7475;SDS011;3779;49.216;8.650;2023-04-06T02:08:50;2.60;;;2.40;;
7475;SDS011;3779;49.216;8.650;2023-04-06T02:11:36;2.60;;;2.30;;
7475;SDS011;3779;49.216;8.650;2023-04-06T02:14:24;4.63;;;3.93;;
7475;SDS011;3779;49.216;8.650;2023-04-06T02:17:13;2.93;;;2.73;;
7475;SDS011;3779;49.216;8.650;2023-04-06T02:19:59;2.87;;;2.67;;
7475;SDS011;3779;49.216;8.650;2023-04-06T02:22:45;2.80;;;2.60;;
7475;SDS011;3779;49.216;8.650;2023-04-06T02:25:31;2.93;;;2.73;;
7475;SDS011;3779;49.216;8.650;2023-04-06T02:28:18;2.70;;;2.50;;
7475;SDS011;3779;49.216;8.650;2023-04-06T02:31:03;2.80;;;2.60;;
7475;SDS011;3779;49.216;8.650;2023-04-06T02:33:49;2.80;;;2.47;;
7475;SDS011;3779;49.216;8.650;2023-04-06T02:36:36;3.33;;;2.73;;
7475;SDS011;3779;49.216;8.650;2023-04-06T02:39:22;2.60;;;2.40;;
7475;SDS011;3779;49.216;8.650;2023-04-06T02:42:08;2.87;;;2.57;;
7475;SDS011;3779;49.216;8.650;2023-04-06T02:44:54;3.60;;;2.50;;
7475;SDS011;3779;49.216;8.650;2023-04-06T02:47:44;2.80;;;2.60;;
7475;SDS011;3779;49.216;8.650;2023-04-06T02:50:33;2.87;;;2.60;;
7475;SDS011;3779;49.216;8.650;2023-04-06T02:53:24;2.73;;;2.40;;
7475;SDS011;3779;49.216;8.650;2023-04-06T02:56:10;2.90;;;2.37;;
7475;SDS011;3779;49.216;8.650;2023-04-06T02:59:03;3.03;;;2.83;;
7475;SDS011;3779;49.216;8.650;2023-04-06T03:01:51;2.60;;;2.40;;
7475;SDS011;3779;49.216;8.650;2023-04-06T03:04:37;3.60;;;3.30;;
7475;SDS011;3779;49.216;8.650;2023-04-06T03:07:27;3.60;;;3.30;;
7475;SDS011;3779;49.216;8.650;2023-04-06T03:10:14;2.73;;;2.40;;
7475;SDS011;3779;49.216;8.650;2023-04-06T03:13:00;3.17;;;2.87;;
7475;SDS011;3779;49.216;8.650;2023-04-06T03:15:59;2.47;;;2.27;;
7475;SDS011;3779;49.216;8.650;2023-04-06T03:18:45;3.23;;;2.93;;
7475;SDS011;3779;49.216;8.650;2023-04-06T03:21:32;2.33;;;2.13;;
7475;SDS011;3779;49.216;8.650;2023-04-06T03:24:19;5.20;;;4.17;;
7475;SDS011;3779;49.216;8.650;2023-04-06T03:27:05;2.57;;;2.37;;
7475;SDS011;3779;49.216;8.650;2023-04-06T03:29:52;3.50;;;3.20;;
7475;SDS011;3779;49.216;8.650;2023-04-06T03:32:44;3.13;;;2.93;;
7475;SDS011;3779;49.216;8.650;2023-04-06T03:35:30;3.13;;;2.83;;
7475;SDS011;3779;49.216;8.650;2023-04-06T03:38:16;3.23;;;2.90;;
7475;SDS011;3779;49.216;8.650;2023-04-06T03:41:02;3.33;;;2.70;;
7475;SDS011;3779;49.216;8.650;2023-04-06T03:43:48;4.03;;;3.63;;
7475;SDS011;3779;49.216;8.650;2023-04-06T03:46:36;2.87;;;2.67;;
7475;SDS011;3779;49.216;8.650;2023-04-06T03:49:23;3.40;;;3.13;;
7475;SDS011;3779;49.216;8.650;2023-04-06T03:52:11;3.03;;;2.83;;
7475;SDS011;3779;49.216;8.650;2023-04-06T03:54:58;2.90;;;2.67;;
7475;SDS011;3779;49.216;8.650;2023-04-06T03:57:44;4.27;;;3.87;;
7475;SDS011;3779;49.216;8.650;2023-04-06T04:00:30;3.47;;;3.00;;
7475;SDS011;3779;49.216;8.650;2023-04-06T04:03:16;4.83;;;2.90;;
7475;SDS011;3779;49.216;8.650;2023-04-06T04:06:01;2.87;;;2.53;;
7475;SDS011;3779;49.216;8.650;2023-04-06T04:08:47;4.57;;;3.13;;
7475;SDS011;3779;49.216;8.650;2023-04-06T04:11:33;3.50;;;3.20;;
7475;SDS011;3779;49.216;8.650;2023-04-06T04:14:19;2.33;;;2.13;;
7475;SDS011;3779;49.216;8.650;2023-04-06T04:17:05;2.63;;;2.43;;
7475;SDS011;3779;49.216;8.650;2023-04-06T04:19:51;5.20;;;3.13;;
7475;SDS011;3779;49.216;8.650;2023-04-06T04:22:37;3.63;;;3.33;;
7475;SDS011;3779;49.216;8.650;2023-04-06T04:25:23;2.80;;;2.60;;
7475;SDS011;3779;49.216;8.650;2023-04-06T04:28:09;3.27;;;2.90;;
7475;SDS011;3779;49.216;8.650;2023-04-06T04:30:56;4.10;;;3.70;;
7475;SDS011;3779;49.216;8.650;2023-04-06T04:33:42;3.50;;;3.20;;
7475;SDS011;3779;49.216;8.650;2023-04-06T04:36:34;2.80;;;2.60;;
7475;SDS011;3779;49.216;8.650;2023-04-06T04:39:24;3.60;;;3.30;;
7475;SDS011;3779;49.216;8.650;2023-04-06T04:42:17;3.63;;;3.33;;
7475;SDS011;3779;49.216;8.650;2023-04-06T04:45:09;3.43;;;3.13;;
7475;SDS011;3779;49.216;8.650;2023-04-06T04:47:57;3.50;;;3.20;;
7475;SDS011;3779;49.216;8.650;2023-04-06T04:50:47;3.50;;;3.13;;
7475;SDS011;3779;49.216;8.650;2023-04-06T04:53:35;4.07;;;3.50;;
7475;SDS011;3779;49.216;8.650;2023-04-06T04:56:32;3.77;;;3.47;;
7475;SDS011;3779;49.216;8.650;2023-04-06T04:59:34;4.73;;;3.33;;
7475;SDS011;3779;49.216;8.650;2023-04-06T05:02:43;3.97;;;3.57;;
7475;SDS011;3779;49.216;8.650;2023-04-06T05:05:33;4.03;;;3.20;;
7475;SDS011;3779;49.216;8.650;2023-04-06T05:08:23;5.60;;;4.83;;
7475;SDS011;3779;49.216;8.650;2023-04-06T05:14:11;5.27;;;4.20;;
7475;SDS011;3779;49.216;8.650;2023-04-06T05:19:53;4.23;;;3.83;;
7475;SDS011;3779;49.216;8.650;2023-04-06T05:25:32;5.00;;;3.73;;
7475;SDS011;3779;49.216;8.650;2023-04-06T05:28:29;4.70;;;3.83;;
7475;SDS011;3779;49.216;8.650;2023-04-06T05:31:15;3.93;;;3.53;;
7475;SDS011;3779;49.216;8.650;2023-04-06T05:34:06;3.47;;;3.17;;
7475;SDS011;3779;49.216;8.650;2023-04-06T05:36:55;6.47;;;5.73;;
7475;SDS011;3779;49.216;8.650;2023-04-06T05:39:44;7.17;;;6.57;;
7475;SDS011;3779;49.216;8.650;2023-04-06T05:42:37;7.30;;;6.13;;
7475;SDS011;3779;49.216;8.650;2023-04-06T05:45:28;6.60;;;6.10;;
7475;SDS011;3779;49.216;8.650;2023-04-06T05:48:15;7.37;;;6.67;;
7475;SDS011;3779;49.216;8.650;2023-04-06T05:51:01;7.43;;;6.73;;
7475;SDS011;3779;49.216;8.650;2023-04-06T05:53:58;7.20;;;6.13;;
7475;SDS011;3779;49.216;8.650;2023-04-06T05:56:45;6.50;;;6.00;;
7475;SDS011;3779;49.216;8.650;2023-04-06T05:59:32;7.23;;;6.53;;
7475;SDS011;3779;49.216;8.650;2023-04-06T06:02:18;8.50;;;6.93;;
7475;SDS011;3779;49.216;8.650;2023-04-06T06:05:09;8.23;;;6.80;;
7475;SDS011;3779;49.216;8.650;2023-04-06T06:07:57;9.97;;;7.07;;
7475;SDS011;3779;49.216;8.650;2023-04-06T06:10:42;8.50;;;6.77;;
7475;SDS011;3779;49.216;8.650;2023-04-06T06:13:31;8.23;;;6.63;;
7475;SDS011;3779;49.216;8.650;2023-04-06T06:16:17;9.13;;;7.30;;
7475;SDS011;3779;49.216;8.650;2023-04-06T06:19:06;7.80;;;7.00;;
7475;SDS011;3779;49.216;8.650;2023-04-06T06:21:52;8.83;;;7.57;;
7475;SDS011;3779;49.216;8.650;2023-04-06T06:24:44;8.10;;;7.17;;
7475;SDS011;3779;49.216;8.650;2023-04-06T06:27:29;11.63;;;9.13;;
7475;SDS011;3779;49.216;8.650;2023-04-06T06:30:15;11.60;;;10.30;;
7475;SDS011;3779;49.216;8.650;2023-04-06T06:35:51;9.80;;;8.80;;
7475;SDS011;3779;49.216;8.650;2023-04-06T06:38:39;9.53;;;7.47;;
7475;SDS011;3779;49.216;8.650;2023-04-06T06:47:33;6.73;;;6.13;;
7475;SDS011;3779;49.216;8.650;2023-04-06T06:56:24;3.43;;;3.13;;
7475;SDS011;3779;49.216;8.650;2023-04-06T06:59:13;2.97;;;2.77;;
7475;SDS011;3779;49.216;8.650;2023-04-06T07:02:01;5.53;;;3.87;;
7475;SDS011;3779;49.216;8.650;2023-04-06T07:07:42;3.33;;;3.00;;
7475;SDS011;3779;49.216;8.650;2023-04-06T07:10:29;2.57;;;2.37;;
7475;SDS011;3779;49.216;8.650;2023-04-06T07:16:22;2.80;;;2.60;;
7475;SDS011;3779;49.216;8.650;2023-04-06T07:28:29;2.40;;;2.20;;
7475;SDS011;3779;49.216;8.650;2023-04-06T07:31:16;2.03;;;1.83;;
7475;SDS011;3779;49.216;8.650;2023-04-06T07:34:03;2.27;;;1.87;;
7475;SDS011;3779;49.216;8.650;2023-04-06T07:36:49;3.07;;;2.87;;
7475;SDS011;3779;49.216;8.650;2023-04-06T07:39:44;4.77;;;3.93;;
7475;SDS011;3779;49.216;8.650;2023-04-06T07:42:30;3.37;;;2.50;;
7475;SDS011;3779;49.216;8.650;2023-04-06T08:22:29;2.97;;;1.80;;
7475;SDS011;3779;49.216;8.650;2023-04-06T08:25:15;1.70;;;1.60;;
7475;SDS011;3779;49.216;8.650;2023-04-06T08:28:04;1.90;;;1.77;;
7475;SDS011;3779;49.216;8.650;2023-04-06T08:30:51;1.60;;;1.50;;
7475;SDS011;3779;49.216;8.650;2023-04-06T08:37:12;1.83;;;1.73;;
7475;SDS011;3779;49.216;8.650;2023-04-06T09:20:25;2.97;;;2.33;;
7475;SDS011;3779;49.216;8.650;2023-04-06T09:32:03;2.10;;;1.90;;
7475;SDS011;3779;49.216;8.650;2023-04-06T09:34:50;1.87;;;1.77;;
7475;SDS011;3779;49.216;8.650;2023-04-06T09:37:37;2.00;;;1.80;;
7475;SDS011;3779;49.216;8.650;2023-04-06T09:40:28;3.23;;;2.93;;
7475;SDS011;3779;49.216;8.650;2023-04-06T09:54:30;2.60;;;2.40;;
7475;SDS011;3779;49.216;8.650;2023-04-06T10:00:16;3.87;;;3.43;;
7475;SDS011;3779;49.216;8.650;2023-04-06T10:03:08;3.67;;;3.30;;
7475;SDS011;3779;49.216;8.650;2023-04-06T10:06:23;7.63;;;5.23;;
7475;SDS011;3779;49.216;8.650;2023-04-06T10:18:43;2.23;;;1.80;;
7475;SDS011;3779;49.216;8.650;2023-04-06T10:21:38;2.37;;;2.17;;
7475;SDS011;3779;49.216;8.650;2023-04-06T10:24:27;1.83;;;1.73;;
7475;SDS011;3779;49.216;8.650;2023-04-06T10:27:12;4.30;;;3.07;;
7475;SDS011;3779;49.216;8.650;2023-04-06T10:30:02;2.00;;;1.80;;
7475;SDS011;3779;49.216;8.650;2023-04-06T10:32:49;1.90;;;1.70;;
7475;SDS011;3779;49.216;8.650;2023-04-06T10:35:37;2.07;;;1.90;;
7475;SDS011;3779;49.216;8.650;2023-04-06T10:41:16;2.27;;;2.10;;
7475;SDS011;3779;49.216;8.650;2023-04-06T10:47:15;2.77;;;2.23;;
7475;SDS011;3779;49.216;8.650;2023-04-06T10:56:28;4.37;;;3.97;;
7475;SDS011;3779;49.216;8.650;2023-04-06T11:05:29;2.87;;;1.80;;
7475;SDS011;3779;49.216;8.650;2023-04-06T11:08:22;4.53;;;2.23;;
7475;SDS011;3779;49.216;8.650;2023-04-06T11:20:25;4.20;;;2.87;;
7475;SDS011;3779;49.216;8.650;2023-04-06T11:23:12;2.00;;;1.90;;
7475;SDS011;3779;49.216;8.650;2023-04-06T11:32:52;2.20;;;2.00;;
7475;SDS011;3779;49.216;8.650;2023-04-06T11:35:46;1.93;;;1.73;;
7475;SDS011;3779;49.216;8.650;2023-04-06T14:06:50;4.73;;;4.23;;
7475;SDS011;3779;49.216;8.650;2023-04-06T15:21:18;4.13;;;2.90;;
7475;SDS011;3779;49.216;8.650;2023-04-06T15:24:06;2.60;;;2.40;;
7475;SDS011;3779;49.216;8.650;2023-04-06T15:26:53;3.27;;;2.37;;
7475;SDS011;3779;49.216;8.650;2023-04-06T15:29:40;2.53;;;2.20;;
7475;SDS011;3779;49.216;8.650;2023-04-06T15:32:26;2.00;;;1.80;;
7475;SDS011;3779;49.216;8.650;2023-04-06T15:35:12;2.33;;;2.13;;
7475;SDS011;3779;49.216;8.650;2023-04-06T15:38:04;2.93;;;2.00;;
7475;SDS011;3779;49.216;8.650;2023-04-06T15:41:11;2.33;;;1.80;;
7475;SDS011;3779;49.216;8.650;2023-04-06T15:44:44;2.00;;;1.80;;
7475;SDS011;3779;49.216;8.650;2023-04-06T15:47:39;4.23;;;2.77;;
7475;SDS011;3779;49.216;8.650;2023-04-06T15:50:32;3.20;;;2.60;;
7475;SDS011;3779;49.216;8.650;2023-04-06T15:53:27;2.20;;;2.00;;
7475;SDS011;3779;49.216;8.650;2023-04-06T15:56:25;2.00;;;1.80;;
7475;SDS011;3779;49.216;8.650;2023-04-06T16:10:22;3.23;;;2.43;;
7475;SDS011;3779;49.216;8.650;2023-04-06T16:13:12;3.10;;;2.33;;
7475;SDS011;3779;49.216;8.650;2023-04-06T16:32:59;4.50;;;3.47;;
7475;SDS011;3779;49.216;8.650;2023-04-06T16:35:45;3.57;;;3.23;;
7475;SDS011;3779;49.216;8.650;2023-04-06T16:38:32;5.97;;;3.77;;
7475;SDS011;3779;49.216;8.650;2023-04-06T16:41:19;1.93;;;1.77;;
7475;SDS011;3779;49.216;8.650;2023-04-06T16:44:06;4.73;;;2.93;;
7475;SDS011;3779;49.216;8.650;2023-04-06T16:46:53;2.07;;;1.87;;
7475;SDS011;3779;49.216;8.650;2023-04-06T16:49:39;2.13;;;1.90;;
7475;SDS011;3779;49.216;8.650;2023-04-06T16:52:25;2.63;;;2.33;;
7475;SDS011;3779;49.216;8.650;2023-04-06T16:55:11;3.33;;;2.90;;
7475;SDS011;3779;49.216;8.650;2023-04-06T16:57:57;3.33;;;2.40;;
7475;SDS011;3779;49.216;8.650;2023-04-06T17:00:42;2.37;;;2.17;;
7475;SDS011;3779;49.216;8.650;2023-04-06T17:03:29;1.80;;;1.50;;
7475;SDS011;3779;49.216;8.650;2023-04-06T17:06:17;1.80;;;1.60;;
7475;SDS011;3779;49.216;8.650;2023-04-06T17:09:03;1.93;;;1.40;;
7475;SDS011;3779;49.216;8.650;2023-04-06T17:11:49;2.20;;;1.63;;
7475;SDS011;3779;49.216;8.650;2023-04-06T17:14:35;2.47;;;1.97;;
7475;SDS011;3779;49.216;8.650;2023-04-06T17:17:21;2.03;;;1.50;;
7475;SDS011;3779;49.216;8.650;2023-04-06T17:20:07;3.17;;;1.50;;
7475;SDS011;3779;49.216;8.650;2023-04-06T17:22:54;1.70;;;1.50;;
7475;SDS011;3779;49.216;8.650;2023-04-06T17:25:39;1.40;;;1.30;;
7475;SDS011;3779;49.216;8.650;2023-04-06T17:28:25;1.83;;;1.50;;
7475;SDS011;3779;49.216;8.650;2023-04-06T17:31:11;2.40;;;1.67;;
7475;SDS011;3779;49.216;8.650;2023-04-06T17:33:57;1.57;;;1.40;;
7475;SDS011;3779;49.216;8.650;2023-04-06T17:36:44;2.57;;;1.53;;
7475;SDS011;3779;49.216;8.650;2023-04-06T17:39:30;1.80;;;1.57;;
7475;SDS011;3779;49.216;8.650;2023-04-06T17:42:16;2.53;;;1.70;;
7475;SDS011;3779;49.216;8.650;2023-04-06T17:45:02;2.13;;;1.60;;
7475;SDS011;3779;49.216;8.650;2023-04-06T17:47:48;2.13;;;1.63;;
7475;SDS011;3779;49.216;8.650;2023-04-06T17:50:37;2.17;;;1.80;;
7475;SDS011;3779;49.216;8.650;2023-04-06T17:53:23;2.37;;;1.90;;
7475;SDS011;3779;49.216;8.650;2023-04-06T17:56:09;1.97;;;1.50;;
7475;SDS011;3779;49.216;8.650;2023-04-06T17:58:55;1.40;;;1.30;;
7475;SDS011;3779;49.216;8.650;2023-04-06T18:01:42;2.40;;;1.90;;
7475;SDS011;3779;49.216;8.650;2023-04-06T18:04:27;1.70;;;1.60;;
7475;SDS011;3779;49.216;8.650;2023-04-06T18:07:13;2.60;;;1.63;;
7475;SDS011;3779;49.216;8.650;2023-04-06T18:10:00;2.90;;;2.60;;
7475;SDS011;3779;49.216;8.650;2023-04-06T18:12:46;3.03;;;2.13;;
7475;SDS011;3779;49.216;8.650;2023-04-06T18:15:33;1.93;;;1.80;;
7475;SDS011;3779;49.216;8.650;2023-04-06T18:18:20;2.60;;;2.00;;
7475;SDS011;3779;49.216;8.650;2023-04-06T18:21:06;1.60;;;1.50;;
7475;SDS011;3779;49.216;8.650;2023-04-06T18:23:53;2.27;;;2.07;;
7475;SDS011;3779;49.216;8.650;2023-04-06T18:26:38;3.30;;;1.60;;
7475;SDS011;3779;49.216;8.650;2023-04-06T18:29:24;1.90;;;1.60;;
7475;SDS011;3779;49.216;8.650;2023-04-06T18:32:10;1.60;;;1.50;;
7475;SDS011;3779;49.216;8.650;2023-04-06T18:34:56;1.83;;;1.73;;
7475;SDS011;3779;49.216;8.650;2023-04-06T18:37:42;3.67;;;2.23;;
7475;SDS011;3779;49.216;8.650;2023-04-06T18:40:31;3.67;;;2.67;;
7475;SDS011;3779;49.216;8.650;2023-04-06T18:43:18;2.60;;;2.40;;
7475;SDS011;3779;49.216;8.650;2023-04-06T18:46:14;2.10;;;1.90;;
7475;SDS011;3779;49.216;8.650;2023-04-06T18:49:03;1.63;;;1.53;;
7475;SDS011;3779;49.216;8.650;2023-04-06T18:51:49;3.43;;;2.67;;
7475;SDS011;3779;49.216;8.650;2023-04-06T18:54:35;2.43;;;2.23;;
7475;SDS011;3779;49.216;8.650;2023-04-06T18:57:21;3.00;;;2.40;;
7475;SDS011;3779;49.216;8.650;2023-04-06T19:00:07;1.50;;;1.40;;
7475;SDS011;3779;49.216;8.650;2023-04-06T19:02:53;2.77;;;2.53;;
7475;SDS011;3779;49.216;8.650;2023-04-06T19:05:40;2.20;;;2.00;;
7475;SDS011;3779;49.216;8.650;2023-04-06T19:08:26;1.50;;;1.40;;
7475;SDS011;3779;49.216;8.650;2023-04-06T19:11:11;2.57;;;2.23;;
7475;SDS011;3779;49.216;8.650;2023-04-06T19:13:58;2.03;;;1.70;;
7475;SDS011;3779;49.216;8.650;2023-04-06T19:16:44;2.00;;;1.80;;
7475;SDS011;3779;49.216;8.650;2023-04-06T19:19:36;1.67;;;1.57;;
7475;SDS011;3779;49.216;8.650;2023-04-06T19:43:06;1.30;;;1.20;;
7475;SDS011;3779;49.216;8.650;2023-04-06T19:45:52;1.87;;;1.77;;
7475;SDS011;3779;49.216;8.650;2023-04-06T19:48:38;1.93;;;1.70;;
7475;SDS011;3779;49.216;8.650;2023-04-06T19:54:37;2.15;;;1.95;;
7475;SDS011;3779;49.216;8.650;2023-04-06T19:57:23;2.50;;;1.47;;
7475;SDS011;3779;49.216;8.650;2023-04-06T20:00:10;2.50;;;2.30;;
7475;SDS011;3779;49.216;8.650;2023-04-06T20:02:57;2.73;;;2.20;;
7475;SDS011;3779;49.216;8.650;2023-04-06T20:05:43;1.97;;;1.17;;
7475;SDS011;3779;49.216;8.650;2023-04-06T20:08:31;1.90;;;1.50;;
7475;SDS011;3779;49.216;8.650;2023-04-06T20:11:17;2.58;;;2.38;;
7475;SDS011;3779;49.216;8.650;2023-04-06T20:14:03;2.20;;;2.00;;
7475;SDS011;3779;49.216;8.650;2023-04-06T20:16:49;2.50;;;2.30;;
7475;SDS011;3779;49.216;8.650;2023-04-06T20:22:36;2.23;;;1.80;;
7475;SDS011;3779;49.216;8.650;2023-04-06T20:26:45;1.93;;;1.70;;
7475;SDS011;3779;49.216;8.650;2023-04-06T20:30:13;3.05;;;2.75;;
7475;SDS011;3779;49.216;8.650;2023-04-06T20:33:03;1.73;;;1.63;;
7475;SDS011;3779;49.216;8.650;2023-04-06T20:35:55;1.70;;;1.60;;
7475;SDS011;3779;49.216;8.650;2023-04-06T20:38:47;1.40;;;1.30;;
7475;SDS011;3779;49.216;8.650;2023-04-06T20:42:10;1.37;;;1.27;;
7475;SDS011;3779;49.216;8.650;2023-04-06T20:45:01;1.40;;;1.30;;
7475;SDS011;3779;49.216;8.650;2023-04-06T20:47:51;2.40;;;1.67;;
7475;SDS011;3779;49.216;8.650;2023-04-06T20:50:38;1.37;;;1.27;;
7475;SDS011;3779;49.216;8.650;2023-04-06T20:53:26;1.80;;;1.67;;
7475;SDS011;3779;49.216;8.650;2023-04-06T20:56:44;1.80;;;1.50;;
7475;SDS011;3779;49.216;8.650;2023-04-06T21:00:07;1.70;;;1.60;;
7475;SDS011;3779;49.216;8.650;2023-04-06T21:04:12;2.50;;;1.87;;
7475;SDS011;3779;49.216;8.650;2023-04-06T21:07:35;1.73;;;1.37;;
7475;SDS011;3779;49.216;8.650;2023-04-06T21:11:43;2.13;;;1.60;;
7475;SDS011;3779;49.216;8.650;2023-04-06T21:14:32;2.30;;;1.67;;
7475;SDS011;3779;49.216;8.650;2023-04-06T21:17:22;1.97;;;1.60;;
7475;SDS011;3779;49.216;8.650;2023-04-06T21:20:32;1.70;;;1.60;;
7475;SDS011;3779;49.216;8.650;2023-04-06T21:23:25;2.30;;;1.43;;
7475;SDS011;3779;49.216;8.650;2023-04-06T21:27:07;2.40;;;1.50;;
7475;SDS011;3779;49.216;8.650;2023-04-06T21:29:58;1.80;;;1.30;;
7475;SDS011;3779;49.216;8.650;2023-04-06T21:32:48;1.50;;;1.40;;
7475;SDS011;3779;49.216;8.650;2023-04-06T21:36:17;1.50;;;1.40;;
7475;SDS011;3779;49.216;8.650;2023-04-06T21:39:11;1.40;;;1.30;;
7475;SDS011;3779;49.216;8.650;2023-04-06T21:42:03;1.47;;;1.30;;
7475;SDS011;3779;49.216;8.650;2023-04-06T21:44:54;1.70;;;1.60;;
7475;SDS011;3779;49.216;8.650;2023-04-06T21:47:41;1.70;;;1.47;;
7475;SDS011;3779;49.216;8.650;2023-04-06T21:50:37;1.50;;;1.40;;
7475;SDS011;3779;49.216;8.650;2023-04-06T21:53:29;2.70;;;1.60;;
7475;SDS011;3779;49.216;8.650;2023-04-06T21:56:18;1.70;;;1.60;;
7475;SDS011;3779;49.216;8.650;2023-04-06T21:59:06;1.83;;;1.67;;
7475;SDS011;3779;49.216;8.650;2023-04-06T22:01:54;1.60;;;1.50;;
7475;SDS011;3779;49.216;8.650;2023-04-06T22:04:39;2.03;;;1.90;;
7475;SDS011;3779;49.216;8.650;2023-04-06T22:07:25;1.60;;;1.33;;
7475;SDS011;3779;49.216;8.650;2023-04-06T22:10:14;3.23;;;1.80;;
7475;SDS011;3779;49.216;8.650;2023-04-06T22:13:05;2.53;;;1.53;;
7475;SDS011;3779;49.216;8.650;2023-04-06T22:15:54;4.43;;;4.03;;
7475;SDS011;3779;49.216;8.650;2023-04-06T22:18:41;5.00;;;4.47;;
7475;SDS011;3779;49.216;8.650;2023-04-06T22:21:27;5.70;;;4.63;;
7475;SDS011;3779;49.216;8.650;2023-04-06T22:24:18;5.40;;;4.70;;
7475;SDS011;3779;49.216;8.650;2023-04-06T22:27:05;4.73;;;4.33;;
7475;SDS011;3779;49.216;8.650;2023-04-06T22:29:55;4.63;;;4.23;;
7475;SDS011;3779;49.216;8.650;2023-04-06T22:32:47;5.30;;;4.77;;
7475;SDS011;3779;49.216;8.650;2023-04-06T22:35:34;6.20;;;4.57;;
7475;SDS011;3779;49.216;8.650;2023-04-06T22:38:22;5.17;;;4.67;;
7475;SDS011;3779;49.216;8.650;2023-04-06T22:41:09;4.33;;;4.03;;
7475;SDS011;3779;49.216;8.650;2023-04-06T22:43:55;1.70;;;1.60;;
7475;SDS011;3779;49.216;8.650;2023-04-06T22:46:42;2.27;;;1.93;;
7475;SDS011;3779;49.216;8.650;2023-04-06T22:49:44;1.50;;;1.40;;
7475;SDS011;3779;49.216;8.650;2023-04-06T22:52:30;2.00;;;1.73;;
7475;SDS011;3779;49.216;8.650;2023-04-06T22:55:17;1.97;;;1.80;;
7475;SDS011;3779;49.216;8.650;2023-04-06T22:58:04;1.40;;;1.30;;
7475;SDS011;3779;49.216;8.650;2023-04-06T23:00:50;1.57;;;1.47;;
7475;SDS011;3779;49.216;8.650;2023-04-06T23:03:45;1.50;;;1.40;;
7475;SDS011;3779;49.216;8.650;2023-04-06T23:06:31;3.17;;;2.23;;
7475;SDS011;3779;49.216;8.650;2023-04-06T23:09:20;1.57;;;1.47;;
7475;SDS011;3779;49.216;8.650;2023-04-06T23:12:07;4.43;;;3.03;;
7475;SDS011;3779;49.216;8.650;2023-04-06T23:14:53;1.93;;;1.70;;
7475;SDS011;3779;49.216;8.650;2023-04-06T23:17:52;1.60;;;1.47;;
7475;SDS011;3779;49.216;8.650;2023-04-06T23:20:41;1.67;;;1.57;;
7475;SDS011;3779;49.216;8.650;2023-04-06T23:23:29;2.50;;;1.57;;
7475;SDS011;3779;49.216;8.650;2023-04-06T23:26:20;1.30;;;1.20;;
7475;SDS011;3779;49.216;8.650;2023-04-06T23:29:06;2.47;;;1.87;;
7475;SDS011;3779;49.216;8.650;2023-04-06T23:31:52;2.57;;;1.80;;
7475;SDS011;3779;49.216;8.650;2023-04-06T23:34:42;1.40;;;1.30;;
7475;SDS011;3779;49.216;8.650;2023-04-06T23:37:29;3.10;;;1.90;;
7475;SDS011;3779;49.216;8.650;2023-04-06T23:40:24;1.80;;;1.70;;
7475;SDS011;3779;49.216;8.650;2023-04-06T23:43:11;1.70;;;1.60;;
7475;SDS011;3779;49.216;8.650;2023-04-06T23:46:00;2.10;;;1.90;;
7475;SDS011;3779;49.216;8.650;2023-04-06T23:48:46;2.23;;;1.30;;
7475;SDS011;3779;49.216;8.650;2023-04-06T23:51:34;1.60;;;1.50;;
7475;SDS011;3779;49.216;8.650;2023-04-06T23:54:20;2.30;;;2.10;;
7475;SDS011;3779;49.216;8.650;2023-04-06T23:57:10;1.70;;;1.60;;
7475;SDS011;3779;49.216;8.650;2023-04-06T23:59:56;4.20;;;3.90;;
